createdAt,value
2023-02-28T01:13:37.054Z,101859.71
2023-02-28T01:17:08.870Z,101857.43
2023-02-28T01:24:00.438Z,101859.21
2023-02-28T02:03:34.713Z,101856.02
2023-02-28T02:24:19.459Z,101847.36
2023-02-28T02:28:18.058Z,101849.71
2023-02-28T02:31:38.415Z,101848.08
2023-02-28T02:34:31.215Z,101848.52
2023-02-28T02:38:50.264Z,101848.70
2023-02-28T02:46:48.403Z,101846.20
2023-02-28T02:54:50.817Z,101853.98
2023-02-28T02:58:35.471Z,101854.95
2023-02-28T03:02:59.052Z,101849.21
2023-02-28T03:25:17.664Z,101859.92
2023-02-28T03:28:21.023Z,101861.59
2023-02-28T03:31:31.211Z,101868.95
2023-02-28T03:34:29.374Z,101872.67
2023-02-28T03:37:17.723Z,101871.39
2023-02-28T03:41:01.865Z,101869.95
2023-02-28T03:45:32.767Z,101872.02
2023-02-28T05:13:34.100Z,101907.59
2023-02-28T05:16:13.781Z,101910.12
2023-02-28T05:19:17.652Z,101911.92
2023-02-28T05:22:37.996Z,101911.48
2023-02-28T05:37:33.310Z,101920.39
2023-02-28T05:40:23.482Z,101925.21
2023-02-28T05:43:51.610Z,101926.33
2023-02-28T05:46:33.067Z,101934.45
2023-02-28T05:49:38.985Z,101935.64
2023-02-28T05:52:51.082Z,101931.80
2023-02-28T05:56:04.918Z,101932.02
2023-02-28T05:58:57.469Z,101937.21
2023-02-28T06:02:01.591Z,101938.65
2023-02-28T06:05:01.615Z,101945.11
2023-02-28T06:07:50.460Z,101952.83
2023-02-28T06:11:01.994Z,101955.70
2023-02-28T06:13:56.683Z,101952.44
2023-02-28T06:16:48.944Z,101956.33
2023-02-28T06:20:17.370Z,101960.20
2023-02-28T06:23:54.367Z,101964.69
2023-02-28T06:27:12.006Z,101967.60
2023-02-28T06:33:32.011Z,101973.06
2023-02-28T06:36:25.609Z,101976.23
2023-02-28T06:39:04.058Z,101977.77
2023-02-28T06:45:45.208Z,101982.48
2023-02-28T06:48:57.700Z,101982.75
2023-02-28T06:52:21.477Z,101986.75
2023-02-28T06:55:20.142Z,101988.52
2023-02-28T06:58:16.093Z,101992.51
2023-02-28T07:00:55.596Z,101994.10
2023-02-28T07:03:29.704Z,101998.23
2023-02-28T07:06:14.104Z,101998.53
2023-02-28T07:13:10.116Z,101997.86
2023-02-28T07:15:54.145Z,101998.63
2023-02-28T07:18:39.842Z,102003.58
2023-02-28T07:21:35.247Z,102002.58
2023-02-28T07:24:54.759Z,102003.29
2023-02-28T07:27:40.877Z,102003.00
2023-02-28T07:30:33.052Z,102002.63
2023-02-28T07:33:28.991Z,102007.23
2023-02-28T07:36:16.941Z,102013.54
2023-02-28T07:38:54.685Z,102020.86
2023-02-28T07:41:44.661Z,102018.48
2023-02-28T07:44:45.751Z,102014.56
2023-02-28T07:47:38.940Z,102011.33
2023-02-28T07:50:31.488Z,102008.19
2023-02-28T07:53:23.893Z,102002.48
2023-02-28T07:56:19.952Z,102002.47
2023-02-28T07:59:09.415Z,102001.25
2023-02-28T08:01:58.857Z,101999.67
2023-02-28T08:04:53.082Z,101999.36
2023-02-28T08:07:38.498Z,102000.26
2023-02-28T08:10:19.292Z,102003.73
2023-02-28T08:13:10.480Z,102002.30
2023-02-28T08:15:56.932Z,102006.90
2023-02-28T08:18:54.737Z,102003.23
2023-02-28T08:21:34.543Z,102002.39
2023-02-28T08:24:23.454Z,102000.70
2023-02-28T08:27:10.974Z,102002.11
2023-02-28T08:30:03.924Z,102002.02
2023-02-28T08:32:58.279Z,102003.36
2023-02-28T08:35:53.207Z,101997.48
2023-02-28T08:38:34.703Z,101995.73
2023-02-28T08:41:13.220Z,101991.83
2023-02-28T08:43:56.195Z,101991.28
2023-02-28T08:46:53.388Z,101992.59
2023-02-28T08:49:49.949Z,101993.02
2023-02-28T08:52:40.313Z,101993.80
2023-02-28T08:55:31.750Z,101994.76
2023-02-28T08:58:29.894Z,101995.08
2023-02-28T09:01:36.931Z,102002.95
2023-02-28T09:04:27.554Z,102001.08
2023-02-28T09:07:09.238Z,101994.80
2023-02-28T09:10:00.726Z,101995.58
2023-02-28T09:12:47.074Z,101991.93
2023-02-28T09:15:44.445Z,101995.64
2023-02-28T09:18:24.663Z,101998.27
2023-02-28T09:21:02.722Z,101996.70
2023-02-28T09:23:45.655Z,101995.95
2023-02-28T09:26:28.147Z,101996.60
2023-02-28T09:29:21.096Z,101998.60
2023-02-28T09:32:29.134Z,102009.01
2023-02-28T09:35:25.541Z,102010.06
2023-02-28T09:38:17.801Z,102009.05
2023-02-28T09:42:02.858Z,102003.76
2023-02-28T09:46:39.086Z,101996.91
2023-02-28T09:49:13.919Z,101994.98
2023-02-28T09:52:42.103Z,101996.06
2023-02-28T09:56:46.288Z,101996.69
2023-02-28T10:00:18.256Z,101995.23
2023-02-28T10:03:35.521Z,101991.42
2023-02-28T10:07:25.956Z,101988.30
2023-02-28T10:11:11.638Z,101986.06
2023-02-28T10:14:09.792Z,101988.14
2023-02-28T10:17:17.584Z,101987.54
2023-02-28T10:20:12.663Z,101991.30
2023-02-28T10:23:25.522Z,101993.44
2023-02-28T10:26:34.368Z,101997.89
2023-02-28T10:29:14.800Z,101988.41
2023-02-28T10:31:56.539Z,101994.45
2023-02-28T10:34:40.134Z,101997.66
2023-02-28T10:37:40.715Z,101997.25
2023-02-28T10:40:25.440Z,101998.51
2023-02-28T10:43:27.878Z,101998.11
2023-02-28T10:46:17.301Z,101990.23
2023-02-28T10:49:34.443Z,101993.80
2023-02-28T10:52:38.279Z,101987.48
2023-02-28T10:55:29.954Z,101988.58
2023-02-28T10:58:27.816Z,101987.82
2023-02-28T11:01:47.668Z,101986.67
2023-02-28T11:04:50.909Z,101984.30
2023-02-28T11:07:53.640Z,101983.57
2023-02-28T11:10:41.125Z,101985.51
2023-02-28T11:13:44.597Z,101978.89
2023-02-28T11:16:57.684Z,101977.36
2023-02-28T11:20:34.206Z,101973.86
2023-02-28T11:23:22.676Z,101970.53
2023-02-28T11:26:19.490Z,101966.65
2023-02-28T11:35:37.807Z,101964.39
2023-02-28T11:39:54.390Z,101960.41
2023-02-28T11:43:31.278Z,101964.23
2023-02-28T11:51:20.133Z,101964.96
2023-02-28T11:54:10.139Z,101965.77
2023-02-28T13:42:12.988Z,101879.49
2023-02-28T14:20:17.760Z,101859.16
2023-02-28T15:03:17.573Z,101828.25
2023-02-28T15:06:58.221Z,101829.14
2023-02-28T15:11:02.589Z,101826.15
2023-02-28T15:14:32.607Z,101823.77
2023-02-28T15:23:09.588Z,101819.02
2023-02-28T15:26:54.656Z,101812.28
2023-02-28T15:31:34.011Z,101807.70
2023-02-28T15:36:17.881Z,101811.25
2023-02-28T15:43:19.921Z,101803.29
2023-02-28T15:46:34.092Z,101803.05
2023-02-28T15:50:06.221Z,101798.64
2023-02-28T15:56:57.828Z,101809.02
2023-02-28T16:00:28.060Z,101806.65
2023-02-28T16:03:42.948Z,101811.39
2023-02-28T16:06:21.157Z,101812.56
2023-02-28T16:09:03.532Z,101814.59
2023-02-28T16:11:59.215Z,101813.17
2023-02-28T16:14:51.806Z,101812.56
2023-02-28T16:18:00.261Z,101811.67
2023-02-28T16:21:15.727Z,101816.17
2023-02-28T16:24:14.231Z,101819.15
2023-02-28T16:33:35.853Z,101824.81
2023-02-28T16:36:25.954Z,101829.75
2023-02-28T16:39:01.644Z,101830.56
2023-02-28T16:41:41.718Z,101833.20
2023-02-28T16:44:42.052Z,101832.05
2023-02-28T16:47:38.418Z,101835.46
2023-02-28T16:50:26.147Z,101840.10
2023-02-28T16:52:56.693Z,101841.99
2023-02-28T16:55:52.767Z,101846.67
2023-02-28T16:58:41.600Z,101845.99
2023-02-28T17:01:59.354Z,101850.67
2023-02-28T17:04:48.248Z,101847.88
2023-02-28T17:08:02.276Z,101845.63
2023-02-28T17:11:17.888Z,101842.14
2023-02-28T17:14:19.870Z,101846.45
2023-02-28T17:17:22.082Z,101845.20
2023-02-28T17:21:09.412Z,101845.27
2023-02-28T17:24:56.866Z,101854.56
2023-02-28T17:28:08.943Z,101856.52
2023-02-28T17:30:55.910Z,101858.88
2023-02-28T17:34:18.893Z,101862.04
2023-02-28T17:37:34.497Z,101862.73
2023-02-28T17:41:28.261Z,101866.80
2023-02-28T17:45:24.005Z,101868.05
2023-02-28T17:48:34.413Z,101860.94
2023-02-28T17:51:18.863Z,101860.27
2023-02-28T17:54:18.344Z,101857.91
2023-02-28T17:57:39.749Z,101854.48
2023-02-28T18:00:30.608Z,101853.58
2023-02-28T18:03:14.450Z,101850.15
2023-02-28T18:06:02.365Z,101849.47
2023-02-28T18:09:38.463Z,101852.98
2023-02-28T18:12:11.253Z,101855.38
2023-02-28T18:14:52.262Z,101847.42
2023-02-28T18:17:31.717Z,101846.02
2023-02-28T18:20:06.910Z,101847.80
2023-02-28T18:22:56.530Z,101847.35
2023-02-28T18:25:31.167Z,101845.99
2023-02-28T18:28:08.858Z,101844.77
2023-02-28T18:30:45.100Z,101843.77
2023-02-28T18:33:17.893Z,101841.45
2023-02-28T18:36:01.226Z,101842.73
2023-02-28T18:38:40.579Z,101848.48
2023-02-28T18:41:14.568Z,101848.42
2023-02-28T18:44:01.313Z,101840.86
2023-02-28T18:46:53.430Z,101838.58
2023-02-28T18:49:49.354Z,101844.44
2023-02-28T18:52:26.124Z,101848.13
2023-02-28T18:55:27.267Z,101849.96
2023-02-28T18:58:08.502Z,101854.34
2023-02-28T19:01:51.573Z,101860.08
2023-02-28T19:04:59.357Z,101859.98
2023-02-28T19:08:25.871Z,101854.66
2023-02-28T19:11:40.701Z,101857.23
2023-02-28T19:14:57.778Z,101852.40
2023-02-28T19:17:50.571Z,101848.30
2023-02-28T19:20:39.255Z,101848.88
2023-02-28T19:23:19.226Z,101849.48
2023-02-28T19:26:40.163Z,101851.23
2023-02-28T19:29:41.104Z,101849.25
2023-02-28T19:32:25.898Z,101844.92
2023-02-28T19:35:09.431Z,101839.91
2023-02-28T19:38:06.103Z,101833.83
2023-02-28T19:40:46.347Z,101833.89
2023-02-28T19:43:55.204Z,101832.64
2023-02-28T19:47:05.688Z,101830.09
2023-02-28T19:50:46.278Z,101831.78
2023-02-28T19:54:10.714Z,101830.36
2023-02-28T20:00:29.761Z,101832.90
2023-02-28T20:03:26.397Z,101830.31
2023-02-28T20:10:02.347Z,101829.69
2023-02-28T20:47:45.098Z,101840.27
2023-02-28T20:51:18.858Z,101840.13
2023-02-28T20:54:28.482Z,101841.23
2023-02-28T21:01:45.865Z,101840.50
2023-02-28T21:05:06.255Z,101840.46
2023-02-28T21:11:32.112Z,101838.65
2023-02-28T21:14:39.976Z,101839.25
2023-02-28T21:18:40.600Z,101843.16
2023-02-28T21:24:56.753Z,101853.64
2023-02-28T21:28:17.383Z,101857.70
2023-02-28T21:31:30.119Z,101858.86
2023-02-28T21:34:54.834Z,101862.05
2023-02-28T21:38:04.382Z,101863.56
2023-02-28T21:41:57.658Z,101865.89
2023-02-28T21:45:34.190Z,101870.02
2023-02-28T21:48:51.884Z,101868.88
2023-02-28T21:52:15.896Z,101870.30
2023-02-28T21:59:22.428Z,101863.73
2023-02-28T22:02:42.534Z,101857.23
2023-02-28T22:05:49.430Z,101857.97
2023-02-28T22:09:19.329Z,101849.55
2023-02-28T22:12:02.035Z,101843.05
2023-02-28T22:14:34.514Z,101844.22
2023-02-28T22:17:18.457Z,101848.79
2023-02-28T22:19:51.026Z,101848.80
2023-02-28T22:22:31.278Z,101846.41
2023-02-28T22:28:05.799Z,101842.32
2023-02-28T22:30:57.213Z,101842.57
2023-02-28T22:33:31.094Z,101846.52
2023-02-28T22:36:18.628Z,101840.69
2023-02-28T22:39:28.369Z,101842.88
2023-02-28T22:42:18.836Z,101855.79
2023-02-28T22:51:29.636Z,101869.21
2023-02-28T22:54:16.027Z,101870.89
2023-02-28T22:57:06.793Z,101875.10
2023-02-28T22:59:41.466Z,101869.77
2023-02-28T23:02:30.803Z,101873.66
2023-02-28T23:05:20.681Z,101870.36
2023-02-28T23:08:10.648Z,101871.39
2023-02-28T23:10:48.524Z,101877.41
2023-02-28T23:13:27.849Z,101874.40
2023-02-28T23:16:00.633Z,101878.45
2023-02-28T23:18:38.511Z,101877.00
2023-02-28T23:21:19.301Z,101877.41
2023-02-28T23:24:10.196Z,101875.64
2023-02-28T23:26:53.343Z,101877.64
2023-02-28T23:29:32.189Z,101879.11
2023-02-28T23:32:43.365Z,101877.15
2023-02-28T23:35:24.614Z,101873.84
2023-02-28T23:38:02.551Z,101867.13
2023-02-28T23:40:47.921Z,101859.58
2023-02-28T23:43:30.918Z,101862.41
2023-02-28T23:46:05.521Z,101869.31
2023-02-28T23:48:43.261Z,101872.73
2023-02-28T23:51:19.052Z,101877.11
